Terminal Aerodrome Forecast
Issued by NWS Sioux Falls, SD

Home | Current Version | Previous Version | Text Only | Print | Product List | Glossary Off
Versions: 1 2 3 4 5 6 7 8 9 10 11 12 13 14 15 16

000
FTUS43 KFSD 282032 AAB
TAFHON
TAF AMD
KHON 282032Z 2821/2918 35010KT 2SM SHRA BKN015
      TEMPO 2821/2823 4SM -SHRA SCT015 OVC040
     FM282300 35007KT P6SM OVC045
     FM290100 28005KT P6SM SCT035
     FM290600 21004KT P6SM BKN050
     FM291000 27005KT 3SM BR SKC
     FM291500 33012KT P6SM SCT030=

USA.gov is the U.S. government's official web portal to all federal, state and local government web resources and services.